Airfield :
LOGIN :

Register | Disclaimer

   EN    FR    IT 

 










Legend :    VFR   Marginal VFR   IFR   Intensive IFR   Very Intensive IFR
Visi :
Ceiling :
>= 8 km
>= 3000ft
5 to 8 km
1000 to 3000 ft
1500m to 5 km
500 to 1000 ft
800 to 1500m
200 to 500 ft
< 800m
< 200 ft
Symbols :   Thunderstorms  Fog  Heavy snow  Heavy precipitations  Wind > 20 kt
SIGMETs :     Misc.  Thunderstorms  Icing  Turbulence  Mountain Waves  Volcanic Ashes






- Airport Elevation : 1455 ft


ETIH - Hohenfels Army Air Field

CURRENT METAR :
  • 300034Z AUTO 00000KT 9999 -DZ OVC041 14/11 A2981 RMK AO2 DZB34 SLP093 $

EXPIRED METARs :
  • 292355Z AUTO 00000KT 9999 OVC013 14/11 A2983 RMK AO2 SLP099 T01430114 10178 20138 57014
  • 300010Z AUTO 00000KT 9999 SCT013 BKN041 OVC065 14/11 A2982 RMK AO2 SLP096 $
  • 292345Z AUTO 00000KT 9999 BKN015 OVC065 14/11 A2983 RMK AO2 CIG 015V065 BKN V SCT SLP099 $
  • 292255Z AUTO 00000KT 9999 OVC065 14/11 A2984 RMK AO2 SLP104 T01420108
  • 292155Z AUTO 00000KT 9999 OVC060 15/10 A2986 RMK AO2 SLP110 T01480104 402020049 $
  • 292055Z AUTO 25003KT 9999 FEW050 SCT065 BKN090 15/11 A2987 RMK AO2 SLP114 T01450109 56002 $
  • 291955Z AUTO 00000KT 9999 SCT075 BKN150 15/11 A2987 RMK AO2 SLP114 T01450109

Expired Forecast.



MET'MAP, your aeronautical weather chart ! - Copyright ORBIFLY December 2007 - Disclaimer

ORBIFLY MET'MAP TEAM :

Programming & Development : Alexandra Zaïnal
Original concept : Baudouin d'Aumeries
Technical & hardware support : Manuel Goepfert
Assistance : Marc-Olivier Méhu




SOURCES & CREDITS :

   NOAA